createdAt,value
2023-05-20T00:01:55.635Z,26.35
2023-05-20T00:11:58.806Z,26.35
2023-05-20T00:22:02.003Z,26.32
2023-05-20T00:32:05.214Z,26.35
2023-05-20T00:42:08.408Z,26.31
2023-05-20T00:52:11.555Z,26.31
2023-05-20T01:02:14.797Z,26.29
2023-05-20T01:12:18.040Z,26.29
2023-05-20T01:22:21.231Z,26.31
2023-05-20T01:32:24.425Z,26.28
2023-05-20T01:42:27.667Z,26.28
2023-05-20T01:52:30.833Z,26.27
2023-05-20T02:02:34.162Z,26.27
2023-05-20T02:12:37.424Z,26.24
2023-05-20T02:22:40.623Z,26.24
2023-05-20T02:32:43.848Z,26.24
2023-05-20T02:42:47.209Z,26.22
2023-05-20T02:52:50.361Z,26.22
2023-05-20T03:02:53.691Z,26.21
2023-05-20T03:12:56.889Z,26.22
2023-05-20T03:23:00.126Z,26.21
2023-05-20T03:33:03.431Z,26.18
2023-05-20T03:43:06.693Z,26.18
2023-05-20T03:53:09.887Z,26.17
2023-05-20T04:03:13.197Z,26.17
2023-05-20T04:13:16.402Z,26.17
2023-05-20T04:23:19.594Z,26.17
2023-05-20T04:33:22.769Z,26.17
2023-05-20T04:43:25.971Z,26.18
2023-05-20T04:53:29.162Z,26.22
2023-05-20T05:03:32.423Z,26.28
2023-05-20T05:13:35.578Z,26.40
2023-05-20T05:23:38.773Z,26.50
2023-05-20T05:33:41.945Z,26.72
2023-05-20T05:43:45.141Z,27.05
2023-05-20T05:53:48.301Z,27.16
2023-05-20T06:03:51.648Z,27.09
2023-05-20T06:13:54.896Z,27.05
2023-05-20T06:23:58.076Z,27.02
2023-05-20T06:34:01.268Z,27.02
2023-05-20T06:44:04.455Z,27.02
2023-05-20T06:54:07.733Z,27.02
2023-05-20T07:04:11.080Z,27.06
2023-05-20T07:14:14.361Z,27.06
2023-05-20T07:24:17.550Z,27.11
2023-05-20T07:34:20.715Z,27.09
2023-05-20T07:44:24.028Z,27.04
2023-05-20T07:54:27.191Z,26.98
2023-05-20T08:04:30.434Z,26.94
2023-05-20T08:14:33.624Z,26.91
2023-05-20T08:24:36.834Z,26.86
2023-05-20T08:34:39.978Z,26.84
2023-05-20T08:44:43.172Z,26.83
2023-05-20T08:54:46.319Z,26.81
2023-05-20T09:04:49.582Z,26.81
2023-05-20T09:14:52.791Z,26.81
2023-05-20T09:24:56.057Z,26.80
2023-05-20T09:34:59.245Z,26.80
2023-05-20T09:45:02.462Z,26.81
2023-05-20T09:55:05.631Z,26.81
2023-05-20T10:05:08.823Z,26.83
2023-05-20T10:15:11.970Z,26.86
2023-05-20T10:25:15.172Z,26.83
2023-05-20T10:35:18.329Z,26.86
2023-05-20T10:45:21.523Z,26.84
2023-05-20T10:55:24.671Z,26.84
2023-05-20T11:05:27.901Z,26.84
2023-05-20T11:15:31.048Z,26.81
2023-05-20T11:25:34.237Z,26.81
2023-05-20T11:35:37.382Z,26.81
2023-05-20T11:45:40.562Z,26.80
2023-05-20T11:55:43.711Z,26.80
2023-05-20T12:05:46.896Z,26.80
2023-05-20T12:15:50.067Z,26.77
2023-05-20T12:25:53.252Z,26.79
2023-05-20T12:35:56.391Z,26.79
2023-05-20T12:45:59.587Z,26.79
2023-05-20T12:56:02.728Z,26.77
2023-05-20T13:06:05.921Z,26.79
2023-05-20T13:16:09.124Z,26.79
2023-05-20T13:26:12.315Z,26.79
2023-05-20T13:36:15.463Z,26.79
2023-05-20T13:46:18.717Z,26.79
2023-05-20T13:56:21.924Z,26.77
2023-05-20T14:06:25.127Z,26.79
2023-05-20T14:16:28.363Z,26.77
2023-05-20T14:26:31.622Z,26.77
2023-05-20T14:36:34.779Z,26.79
2023-05-20T14:46:38.052Z,26.77
2023-05-20T14:56:41.276Z,26.77
2023-05-20T15:06:44.493Z,26.76
2023-05-20T15:16:47.748Z,26.76
2023-05-20T15:26:50.989Z,26.77
2023-05-20T15:36:54.146Z,26.76
2023-05-20T15:46:57.345Z,26.77
2023-05-20T15:57:00.497Z,26.73
2023-05-20T16:07:03.697Z,26.74
2023-05-20T16:17:06.869Z,26.74
2023-05-20T16:27:10.066Z,26.74
2023-05-20T16:37:13.229Z,26.74
2023-05-20T16:47:16.435Z,26.73
2023-05-20T16:57:19.606Z,26.72
2023-05-20T17:07:22.810Z,26.72
2023-05-20T17:17:25.976Z,26.72
2023-05-20T17:27:29.272Z,26.69
2023-05-20T17:37:32.470Z,26.69
2023-05-20T17:47:35.699Z,26.68
2023-05-20T17:57:38.927Z,26.67
2023-05-20T18:07:42.140Z,26.68
2023-05-20T18:17:45.362Z,26.65
2023-05-20T18:27:48.596Z,26.67
2023-05-20T18:37:51.757Z,26.64
2023-05-20T18:47:55.139Z,26.64
2023-05-20T18:57:58.337Z,26.65
2023-05-20T19:08:01.568Z,26.65
2023-05-20T19:18:04.847Z,26.64
2023-05-20T19:28:08.114Z,26.64
2023-05-20T19:38:11.302Z,26.62
2023-05-20T19:48:14.484Z,26.62
2023-05-20T19:58:17.678Z,26.62
2023-05-20T20:08:20.903Z,26.61
2023-05-20T20:18:24.087Z,26.61
2023-05-20T20:28:27.299Z,26.61
2023-05-20T20:38:30.471Z,26.59
2023-05-20T20:48:33.676Z,26.59
2023-05-20T20:58:36.829Z,26.58
2023-05-20T21:08:40.047Z,26.58
2023-05-20T21:18:43.261Z,26.58
2023-05-20T21:28:46.496Z,26.58
2023-05-20T21:38:49.644Z,26.57
2023-05-20T21:48:52.850Z,26.57
2023-05-20T21:58:56.043Z,26.57
2023-05-20T22:08:59.250Z,26.55
2023-05-20T22:19:02.461Z,26.55
2023-05-20T22:29:05.722Z,26.54
2023-05-20T22:39:08.884Z,26.54
2023-05-20T22:49:12.101Z,26.54
2023-05-20T22:59:15.256Z,26.54
2023-05-20T23:09:18.471Z,26.52
2023-05-20T23:19:21.659Z,26.52
2023-05-20T23:29:24.890Z,26.50
2023-05-20T23:39:28.077Z,26.52
2023-05-20T23:49:31.284Z,26.50
2023-05-20T23:59:34.448Z,26.49
